Time;durP1;ratioP1;P1;durP2;ratioP2;P2;SDS_P1;SDS_P2;PMS_P1;PMS_P2;Temp;Humidity;BMP_temperature;BMP_pressure;BME280_temperature;BME280_humidity;BME280_pressure;Samples;Min_cycle;Max_cycle;Signal;HPM_P1;HPM_P2
2023/04/25 00:01:14;;;;;;;4.38;2.15;;;14.20;82.20;;;;;;4991583;28;20029;-82
2023/04/25 00:03:40;;;;;;;3.88;2.00;;;14.20;82.20;;;;;;4991821;28;20019;-82
2023/04/25 00:06:06;;;;;;;5.03;2.10;;;14.20;82.20;;;;;;4991845;28;20023;-84
2023/04/25 00:08:32;;;;;;;4.90;2.30;;;14.20;82.20;;;;;;4991718;28;20024;-81
2023/04/25 00:10:58;;;;;;;4.60;2.10;;;14.20;82.10;;;;;;4991477;28;20113;-82
2023/04/25 00:13:25;;;;;;;5.25;2.15;;;14.20;82.10;;;;;;4991785;28;20023;-82
2023/04/25 00:15:51;;;;;;;4.00;2.00;;;14.20;82.10;;;;;;4991637;28;20471;-82
2023/04/25 00:18:17;;;;;;;4.70;2.00;;;14.20;82.20;;;;;;4992019;28;20033;-82
2023/04/25 00:20:46;;;;;;;4.15;1.90;;;14.20;82.20;;;;;;4992677;28;20015;-83
2023/04/25 00:23:18;;;;;;;3.97;2.05;;;14.20;82.20;;;;;;4991686;28;20030;-82
2023/04/25 00:25:44;;;;;;;5.97;2.13;;;14.20;82.10;;;;;;4991746;28;20118;-81
2023/04/25 00:28:11;;;;;;;4.32;2.20;;;14.20;82.10;;;;;;4991563;28;20033;-81
2023/04/25 00:30:37;;;;;;;3.97;1.90;;;14.20;82.10;;;;;;4992529;28;20026;-81
2023/04/25 00:33:02;;;;;;;4.55;2.03;;;14.20;82.10;;;;;;4991449;28;20077;-82
2023/04/25 00:35:28;;;;;;;5.20;2.10;;;14.20;82.20;;;;;;4991332;28;20022;-83
2023/04/25 00:37:54;;;;;;;5.47;2.30;;;14.20;82.10;;;;;;4991422;28;20023;-82
2023/04/25 00:40:20;;;;;;;3.92;1.98;;;14.20;82.10;;;;;;4993417;28;20463;-82
2023/04/25 00:42:47;;;;;;;3.95;1.98;;;14.20;82.10;;;;;;4996235;28;20078;-83
2023/04/25 00:45:16;;;;;;;5.05;2.20;;;14.20;82.10;;;;;;4996244;28;20109;-82
2023/04/25 00:47:42;;;;;;;4.40;2.00;;;14.20;82.10;;;;;;4994972;28;20023;-82
2023/04/25 00:50:09;;;;;;;5.60;2.20;;;14.20;82.10;;;;;;4997196;28;20169;-82
2023/04/25 00:52:35;;;;;;;4.35;2.10;;;14.20;82.60;;;;;;5014506;28;20021;-82
2023/04/25 00:55:00;;;;;;;4.25;2.10;;;14.20;82.10;;;;;;5015756;28;20021;-82
2023/04/25 00:57:26;;;;;;;4.50;2.22;;;14.20;82.10;;;;;;4997885;28;20418;-82
2023/04/25 00:59:53;;;;;;;5.63;2.17;;;14.20;82.10;;;;;;5014219;28;20033;-82
2023/04/25 01:02:20;;;;;;;3.83;1.90;;;14.20;82.10;;;;;;4997767;28;20042;-83
2023/04/25 01:04:47;;;;;;;3.95;2.03;;;14.10;82.10;;;;;;4997987;28;20026;-82
2023/04/25 01:07:13;;;;;;;4.85;2.30;;;14.20;82.10;;;;;;5014259;28;20029;-83
2023/04/25 01:09:39;;;;;;;4.95;2.05;;;14.20;82.10;;;;;;5015469;28;20045;-82
2023/04/25 01:12:04;;;;;;;4.03;1.77;;;14.20;82.10;;;;;;4997664;28;20735;-82
2023/04/25 01:14:30;;;;;;;4.18;2.08;;;14.10;82.00;;;;;;4997842;28;20022;-83
2023/04/25 01:16:56;;;;;;;4.95;2.05;;;14.20;82.10;;;;;;5014071;28;20034;-82
2023/04/25 01:19:21;;;;;;;3.85;1.90;;;14.20;82.10;;;;;;5014057;28;20116;-82
2023/04/25 01:21:47;;;;;;;4.63;2.08;;;14.20;82.10;;;;;;5013801;28;20026;-82
2023/04/25 01:24:13;;;;;;;4.55;2.00;;;14.20;82.10;;;;;;5015123;28;20076;-82
2023/04/25 01:26:44;;;;;;;4.28;2.00;;;14.20;82.10;;;;;;5014945;28;20018;-82
2023/04/25 01:29:10;;;;;;;5.82;2.17;;;14.20;82.10;;;;;;4997462;28;20025;-83
2023/04/25 01:31:36;;;;;;;5.10;2.10;;;14.10;82.00;;;;;;4997356;28;20017;-83
2023/04/25 01:34:02;;;;;;;5.97;2.38;;;14.10;82.00;;;;;;5015284;28;20033;-83
2023/04/25 01:36:28;;;;;;;4.50;2.00;;;14.10;82.00;;;;;;5013635;28;20022;-83
2023/04/25 01:38:53;;;;;;;4.60;2.35;;;14.20;82.10;;;;;;4997343;28;20024;-83
2023/04/25 01:41:19;;;;;;;5.80;2.20;;;14.10;82.00;;;;;;5013538;28;20108;-82
2023/04/25 01:43:45;;;;;;;4.60;2.05;;;14.10;82.00;;;;;;5013713;28;20025;-83
2023/04/25 01:46:12;;;;;;;4.72;2.15;;;14.20;82.00;;;;;;5014702;28;20025;-82
2023/04/25 01:48:37;;;;;;;4.35;1.98;;;14.10;81.90;;;;;;5014743;28;20080;-83
2023/04/25 01:51:03;;;;;;;4.78;2.22;;;14.10;81.90;;;;;;5012019;28;20033;-82
2023/04/25 01:53:29;;;;;;;5.20;2.25;;;14.10;81.90;;;;;;5013302;28;20026;-80
2023/04/25 01:55:54;;;;;;;5.35;2.08;;;14.20;82.00;;;;;;4996889;28;20021;-82
2023/04/25 01:58:20;;;;;;;4.10;2.40;;;14.10;81.90;;;;;;5014328;28;20018;-82
2023/04/25 02:00:46;;;;;;;5.88;2.30;;;14.20;81.90;;;;;;5013125;28;20013;-82
2023/04/25 02:03:11;;;;;;;5.15;2.20;;;14.10;81.90;;;;;;5013419;28;20026;-83
2023/04/25 02:05:38;;;;;;;3.83;2.00;;;14.10;81.80;;;;;;5013080;28;20024;-82
2023/04/25 02:08:09;;;;;;;5.22;2.10;;;14.10;81.80;;;;;;4996916;28;20113;-81
2023/04/25 02:10:36;;;;;;;4.85;2.17;;;14.10;81.80;;;;;;4996376;28;20026;-82
2023/04/25 02:13:02;;;;;;;4.90;2.40;;;14.10;81.80;;;;;;5012944;28;20032;-81
2023/04/25 02:15:28;;;;;;;4.90;2.17;;;14.10;81.80;;;;;;4996522;28;20022;-82
2023/04/25 02:17:53;;;;;;;3.88;1.98;;;14.10;81.80;;;;;;5012976;28;20025;-82
2023/04/25 02:20:21;;;;;;;5.35;2.10;;;14.10;81.70;;;;;;5012557;28;20018;-82
2023/04/25 02:22:47;;;;;;;4.88;2.17;;;14.10;81.80;;;;;;4996528;28;20033;-81
2023/04/25 02:25:13;;;;;;;6.07;2.33;;;14.10;81.70;;;;;;5012773;28;20014;-82
2023/04/25 02:27:38;;;;;;;4.30;2.03;;;14.10;81.70;;;;;;4996513;28;20022;-81
2023/04/25 02:30:06;;;;;;;4.10;1.90;;;14.10;81.80;;;;;;5012782;28;20025;-82
2023/04/25 02:32:32;;;;;;;5.30;2.10;;;14.10;81.70;;;;;;5013686;28;20470;-82
2023/04/25 02:35:03;;;;;;;4.95;2.30;;;14.10;81.70;;;;;;5012556;28;20072;-79
2023/04/25 02:37:30;;;;;;;4.47;2.03;;;14.10;81.70;;;;;;5012515;28;20087;-82
2023/04/25 02:39:55;;;;;;;5.10;2.25;;;14.10;81.70;;;;;;5030097;28;20025;-81
2023/04/25 02:42:20;;;;;;;4.57;1.85;;;14.10;81.60;;;;;;5031948;28;20072;-83
2023/04/25 02:44:46;;;;;;;4.15;2.00;;;14.10;81.70;;;;;;5015725;28;20028;-82
2023/04/25 02:47:11;;;;;;;4.15;2.08;;;14.10;81.60;;;;;;5015681;28;20022;-82
2023/04/25 02:49:37;;;;;;;4.45;2.05;;;14.10;81.70;;;;;;5069944;23;20044;-86
2023/04/25 02:52:03;;;;;;;4.45;2.00;;;14.10;81.70;;;;;;5025503;28;20490;-85
2023/04/25 02:54:28;;;;;;;4.85;2.08;;;14.10;81.60;;;;;;5025403;28;20517;-84
2023/04/25 02:56:54;;;;;;;6.13;2.10;;;14.10;81.70;;;;;;5024378;28;20036;-86
2023/04/25 02:59:19;;;;;;;5.30;2.00;;;14.10;81.60;;;;;;5022397;28;20485;-86
2023/04/25 03:01:45;;;;;;;4.07;1.77;;;14.10;81.60;;;;;;5004118;28;20518;-84
2023/04/25 03:04:11;;;;;;;4.70;2.10;;;14.10;81.60;;;;;;5004014;28;20026;-84
2023/04/25 03:06:36;;;;;;;5.68;1.83;;;14.10;81.60;;;;;;5004394;28;20030;-84
2023/04/25 03:09:02;;;;;;;5.63;2.00;;;14.10;81.50;;;;;;5003352;28;20504;-84
2023/04/25 03:11:27;;;;;;;4.72;2.15;;;14.20;81.60;;;;;;5002310;28;20504;-83
2023/04/25 03:13:53;;;;;;;5.63;2.03;;;14.10;81.50;;;;;;5001588;28;20030;-85
2023/04/25 03:16:19;;;;;;;5.40;2.10;;;14.10;81.50;;;;;;5008717;28;20038;-86
2023/04/25 03:18:45;;;;;;;4.18;2.05;;;14.10;81.60;;;;;;5009409;28;20068;-85
2023/04/25 03:21:10;;;;;;;4.47;1.92;;;14.10;81.60;;;;;;5027105;28;20026;-85
2023/04/25 03:23:36;;;;;;;4.75;2.10;;;14.10;81.50;;;;;;5009751;28;20025;-85
2023/04/25 03:26:01;;;;;;;5.60;2.13;;;14.10;81.50;;;;;;5009949;28;20022;-85
2023/04/25 03:28:27;;;;;;;4.82;1.90;;;14.10;82.00;;;;;;5005195;28;20036;-81
2023/04/25 03:30:53;;;;;;;4.88;2.15;;;14.10;81.40;;;;;;4996677;28;20057;-81
2023/04/25 03:33:19;;;;;;;5.78;2.20;;;14.10;81.50;;;;;;4991926;28;20497;-82
2023/04/25 03:35:45;;;;;;;5.45;1.92;;;14.10;81.40;;;;;;4998487;28;20038;-79
2023/04/25 03:38:10;;;;;;;4.00;1.90;;;14.10;81.40;;;;;;5011029;28;20601;-82
2023/04/25 03:40:36;;;;;;;5.35;1.98;;;14.10;81.40;;;;;;4994969;28;20030;-83
2023/04/25 03:43:01;;;;;;;5.47;2.05;;;14.10;81.50;;;;;;4993441;28;20025;-80
2023/04/25 03:45:27;;;;;;;5.72;2.05;;;14.00;81.40;;;;;;5012300;28;20041;-81
2023/04/25 03:47:52;;;;;;;4.18;1.80;;;14.10;81.40;;;;;;4996124;28;20164;-81
2023/04/25 03:50:18;;;;;;;5.20;2.20;;;14.10;81.40;;;;;;5004408;28;20657;-81
2023/04/25 03:52:43;;;;;;;6.07;2.10;;;14.10;81.40;;;;;;5013399;28;20081;-84
2023/04/25 03:55:09;;;;;;;4.90;2.15;;;14.00;81.30;;;;;;5014447;28;20403;-84
2023/04/25 03:57:35;;;;;;;4.80;2.10;;;14.10;81.30;;;;;;5033103;28;20040;-79
2023/04/25 04:00:00;;;;;;;4.07;1.88;;;14.10;81.40;;;;;;5016330;28;20030;-81
2023/04/25 04:02:26;;;;;;;5.50;2.25;;;14.00;81.30;;;;;;5034004;28;20112;-83
2023/04/25 04:04:51;;;;;;;4.13;2.20;;;14.10;81.30;;;;;;5014865;28;20025;-82
2023/04/25 04:07:17;;;;;;;6.00;2.30;;;14.00;81.30;;;;;;5014566;28;20083;-80
2023/04/25 04:09:42;;;;;;;6.13;2.17;;;14.10;81.30;;;;;;5012821;28;20053;-83
2023/04/25 04:12:08;;;;;;;4.72;1.85;;;14.00;81.20;;;;;;5012802;28;20140;-81
2023/04/25 04:14:34;;;;;;;4.65;2.35;;;14.00;81.20;;;;;;5015156;28;20036;-86
2023/04/25 04:17:00;;;;;;;4.50;1.95;;;14.10;81.30;;;;;;5018407;28;20029;-84
2023/04/25 04:39:06;;;;;;;6.72;1.85;;;14.10;81.00;;;;;;4928540;29;20038;-82
2023/04/25 05:09:16;;;;;;;5.18;1.70;;;14.00;80.80;;;;;;4964078;22;20075;-83
2023/04/25 05:11:41;;;;;;;6.22;2.00;;;14.10;80.80;;;;;;5032941;28;20041;-83
2023/04/25 05:14:07;;;;;;;5.22;2.20;;;14.00;80.80;;;;;;5035596;28;20591;-84
2023/04/25 05:16:32;;;;;;;4.45;1.80;;;14.00;80.80;;;;;;5034779;28;20037;-83
2023/04/25 05:18:58;;;;;;;5.75;1.95;;;14.00;80.70;;;;;;5034557;28;20029;-83
2023/04/25 05:21:25;;;;;;;5.72;2.20;;;13.90;80.70;;;;;;5034266;28;20029;-82
2023/04/25 05:23:51;;;;;;;6.03;1.90;;;14.00;80.80;;;;;;5034746;28;20029;-84
2023/04/25 05:26:17;;;;;;;5.43;2.00;;;14.20;80.80;;;;;;5034350;28;20036;-83
2023/04/25 05:28:46;;;;;;;6.20;2.10;;;13.90;80.70;;;;;;5034377;28;20121;-83
2023/04/25 05:41:32;;;;;;;4.35;2.00;;;14.00;80.50;;;;;;5010172;28;20103;-84
2023/04/25 05:43:59;;;;;;;5.80;2.03;;;14.10;80.60;;;;;;4994641;28;20026;-84
2023/04/25 05:46:25;;;;;;;5.75;1.98;;;14.00;80.60;;;;;;4994157;28;20057;-83
2023/04/25 05:48:51;;;;;;;6.15;2.30;;;14.00;80.50;;;;;;4994186;28;20446;-84
2023/04/25 05:51:18;;;;;;;5.97;2.30;;;14.10;80.60;;;;;;5289032;22;20049;-87
2023/04/25 05:53:44;;;;;;;6.22;1.95;;;14.10;80.50;;;;;;5003290;28;20046;-85
2023/04/25 05:56:10;;;;;;;5.18;2.05;;;14.00;80.40;;;;;;5002501;28;20110;-85
2023/04/25 05:58:36;;;;;;;4.97;2.08;;;14.00;80.40;;;;;;5001216;28;20449;-85
2023/04/25 06:01:02;;;;;;;6.50;2.30;;;13.90;80.30;;;;;;5001382;28;20054;-84
2023/04/25 06:03:28;;;;;;;8.20;2.45;;;14.00;80.20;;;;;;5001194;28;20048;-85
2023/04/25 06:05:54;;;;;;;6.15;1.90;;;14.00;80.30;;;;;;4999871;28;20037;-85
2023/04/25 06:08:20;;;;;;;8.27;2.30;;;14.00;80.30;;;;;;4999608;28;20089;-86
2023/04/25 06:10:45;;;;;;;7.13;2.40;;;14.00;80.80;;;;;;4999362;28;20033;-83
2023/04/25 06:13:11;;;;;;;5.82;2.20;;;14.00;80.20;;;;;;4998621;28;20033;-82
2023/04/25 06:15:37;;;;;;;7.47;2.35;;;14.00;80.20;;;;;;4993412;28;20034;-84
2023/04/25 06:18:02;;;;;;;6.20;2.25;;;13.90;80.10;;;;;;4997921;28;20026;-84
2023/04/25 06:20:45;;;;;;;6.22;2.50;;;14.00;80.20;;;;;;5024738;23;20521;-83
2023/04/25 06:23:57;;;;;;;5.80;1.95;;;14.00;80.20;;;;;;5024973;28;20463;-83
2023/04/25 06:26:38;;;;;;;4.50;2.13;;;13.90;80.00;;;;;;5034690;28;20071;-82
2023/04/25 06:29:26;;;;;;;4.72;2.00;;;13.90;80.00;;;;;;5032438;28;20029;-82
2023/04/25 06:32:02;;;;;;;6.95;2.50;;;14.00;80.10;;;;;;5014441;28;20033;-83
2023/04/25 06:34:28;;;;;;;7.70;2.60;;;14.00;80.00;;;;;;5015592;28;20120;-85
2023/04/25 06:37:02;;;;;;;6.30;2.45;;;15.30;80.60;;;;;;5014898;28;20132;-83
2023/04/25 06:43:36;;;;;;;5.38;2.28;;;14.00;79.80;;;;;;5023387;28;20032;-84
2023/04/25 06:46:36;;;;;;;6.60;2.28;;;14.00;79.80;;;;;;5012276;28;20124;-83
2023/04/25 06:49:25;;;;;;;7.20;2.65;;;14.00;79.70;;;;;;5011956;28;20033;-84
2023/04/25 06:51:53;;;;;;;6.35;2.25;;;14.30;79.80;;;;;;5008702;28;20033;-84
2023/04/25 06:54:29;;;;;;;6.53;2.25;;;14.00;79.60;;;;;;5017624;28;20068;-85
2023/04/25 06:57:08;;;;;;;7.22;2.22;;;14.00;79.60;;;;;;5017578;28;20085;-84
2023/04/25 06:59:42;;;;;;;6.22;2.30;;;14.60;79.80;;;;;;5016061;28;20029;-84
2023/04/25 07:02:16;;;;;;;6.15;2.28;;;14.20;79.50;;;;;;5016505;28;20026;-85
2023/04/25 07:05:21;;;;;;;;;;;;;;;;;;;;;
2023/04/25 07:08:02;;;;;;;7.10;2.22;;;14.10;79.40;;;;;;4992185;28;20058;-83
2023/04/25 07:11:50;;;;;;;;;;;;;;;;;;;;;
2023/04/25 07:14:18;;;;;;;6.53;2.20;;;14.10;79.70;;;;;;4984619;28;20040;-83
2023/04/25 07:20:57;;;;;;;;;;;;;;;;;;;;;
2023/04/25 07:23:05;;;;;;;7.25;2.47;;;14.00;78.90;;;;;;5024691;28;20033;-84
2023/04/25 07:25:37;;;;;;;6.82;2.33;;;15.80;79.90;;;;;;5013932;28;20030;-82
2023/04/25 07:28:17;;;;;;;6.53;2.22;;;14.10;79.00;;;;;;5013966;28;20032;-82
2023/04/25 07:30:43;;;;;;;5.03;1.80;;;14.10;78.80;;;;;;5014495;28;20112;-83
2023/04/25 07:33:24;;;;;;;7.60;2.35;;;14.10;78.70;;;;;;5013960;28;20148;-84
2023/04/25 07:39:39;;;;;;;6.82;2.00;;;14.10;78.60;;;;;;5029390;28;20032;-85
2023/04/25 07:42:34;;;;;;;7.35;2.50;;;14.10;78.60;;;;;;5008737;28;20051;-85
2023/04/25 07:45:01;;;;;;;5.95;2.28;;;14.10;78.50;;;;;;5010414;28;20041;-84
2023/04/25 07:47:26;;;;;;;6.03;2.10;;;14.10;78.60;;;;;;5018650;28;20511;-84
2023/04/25 07:49:52;;;;;;;7.40;2.38;;;14.10;78.40;;;;;;5019467;28;20022;-82
2023/04/25 07:52:17;;;;;;;5.03;1.85;;;14.20;78.30;;;;;;5019421;28;20061;-82
2023/04/25 07:54:43;;;;;;;5.90;1.70;;;14.30;78.50;;;;;;5039231;28;20060;-82
2023/04/25 07:57:08;;;;;;;7.20;2.20;;;14.30;78.50;;;;;;5022824;28;20438;-89
2023/04/25 07:59:34;;;;;;;17.75;2.85;;;14.40;78.30;;;;;;5021123;28;20025;-89
2023/04/25 08:02:00;;;;;;;12.20;2.90;;;14.40;76.80;;;;;;5019569;28;20084;-89
2023/04/25 08:04:26;;;;;;;29.20;3.13;;;14.30;76.60;;;;;;5019679;28;20438;-88
2023/04/25 08:06:53;;;;;;;42.10;4.55;;;14.30;74.60;;;;;;5020404;28;20029;-88
2023/04/25 08:09:19;;;;;;;32.67;3.85;;;14.30;73.50;;;;;;5038718;28;20025;-89
2023/04/25 08:11:45;;;;;;;26.55;3.97;;;14.30;73.60;;;;;;5019733;28;20021;-89
2023/04/25 08:14:11;;;;;;;23.95;3.47;;;14.30;74.40;;;;;;5019324;28;20053;-89
2023/04/25 08:16:37;;;;;;;21.10;3.22;;;14.30;75.10;;;;;;5018933;28;20025;-88
2023/04/25 08:19:02;;;;;;;20.38;3.03;;;14.30;75.50;;;;;;5018998;28;20065;-89
2023/04/25 08:21:28;;;;;;;22.05;3.20;;;14.30;75.80;;;;;;5019479;28;20478;-88
2023/04/25 08:23:54;;;;;;;23.90;3.35;;;14.30;75.80;;;;;;5019152;28;20026;-89
2023/04/25 08:26:20;;;;;;;17.10;3.13;;;14.30;76.00;;;;;;5037790;28;20087;-88
2023/04/25 08:28:46;;;;;;;16.63;2.55;;;14.30;76.00;;;;;;5021297;28;20029;-87
2023/04/25 08:31:12;;;;;;;18.73;3.20;;;14.30;76.60;;;;;;5035186;28;20040;-87
2023/04/25 08:33:37;;;;;;;15.85;2.85;;;14.30;76.30;;;;;;5024701;28;20030;-88
2023/04/25 08:36:03;;;;;;;18.05;3.33;;;14.30;76.40;;;;;;5023671;28;20021;-88
2023/04/25 08:38:28;;;;;;;17.50;3.10;;;14.30;76.50;;;;;;5025249;28;20553;-88
2023/04/25 08:40:55;;;;;;;18.10;2.90;;;14.30;76.60;;;;;;5025925;28;20056;-88
2023/04/25 08:43:20;;;;;;;15.82;2.92;;;14.30;76.50;;;;;;5022158;28;20033;-87
2023/04/25 08:45:47;;;;;;;13.73;2.90;;;14.30;76.70;;;;;;5019513;28;20397;-85
2023/04/25 08:48:14;;;;;;;12.63;2.55;;;14.30;76.80;;;;;;5018347;28;20033;-85
2023/04/25 08:50:54;;;;;;;16.83;3.03;;;14.40;76.70;;;;;;5019879;28;20029;-88
2023/04/25 08:53:25;;;;;;;13.48;2.85;;;14.30;76.80;;;;;;5018648;28;20025;-86
2023/04/25 08:55:51;;;;;;;17.80;2.97;;;14.40;77.00;;;;;;5018090;28;20036;-83
2023/04/25 08:58:18;;;;;;;10.82;2.45;;;14.40;77.10;;;;;;5035425;28;20025;-82
2023/04/25 09:00:45;;;;;;;11.35;2.78;;;14.40;77.00;;;;;;5017421;28;20461;-87
2023/04/25 09:03:11;;;;;;;11.82;2.22;;;14.50;76.90;;;;;;5056732;28;20032;-82
2023/04/25 09:05:37;;;;;;;7.82;1.98;;;14.50;76.90;;;;;;5056091;28;20025;-84
2023/04/25 09:08:02;;;;;;;8.23;2.22;;;14.60;77.00;;;;;;5036943;28;20059;-86
2023/04/25 09:10:28;;;;;;;9.05;2.40;;;14.70;76.80;;;;;;5036634;28;20074;-86
2023/04/25 09:13:08;;;;;;;10.07;2.30;;;14.60;76.30;;;;;;5036762;28;20062;-86
2023/04/25 09:15:51;;;;;;;9.65;2.50;;;14.60;76.10;;;;;;5036447;28;20055;-87
2023/04/25 09:18:26;;;;;;;7.78;2.17;;;14.60;76.40;;;;;;5036537;28;20099;-86
2023/04/25 09:20:53;;;;;;;13.43;3.08;;;14.60;76.40;;;;;;5042854;28;20028;-87
2023/04/25 09:23:21;;;;;;;9.88;2.00;;;14.50;76.30;;;;;;5047945;28;20021;-88
2023/04/25 09:25:48;;;;;;;11.52;2.40;;;14.50;76.40;;;;;;5046779;28;20025;-87
2023/04/25 09:28:13;;;;;;;10.32;2.30;;;14.50;76.40;;;;;;5046270;28;20029;-87
2023/04/25 09:30:39;;;;;;;7.22;2.50;;;14.50;76.40;;;;;;5063599;28;20033;-88
2023/04/25 09:33:10;;;;;;;9.05;2.42;;;14.40;76.50;;;;;;5045572;28;20013;-87
2023/04/25 09:35:40;;;;;;;8.63;2.30;;;14.40;76.50;;;;;;5064570;28;20047;-87
2023/04/25 09:38:14;;;;;;;9.32;2.08;;;14.40;76.60;;;;;;5044944;28;20504;-86
2023/04/25 09:40:45;;;;;;;10.30;2.17;;;14.40;76.60;;;;;;5042747;28;20405;-86
2023/04/25 09:43:21;;;;;;;9.23;2.17;;;14.40;76.60;;;;;;5044683;28;20032;-87
2023/04/25 09:45:47;;;;;;;9.65;2.17;;;14.40;76.70;;;;;;5044918;28;20017;-86
2023/04/25 09:48:21;;;;;;;9.65;2.13;;;14.40;76.80;;;;;;5044627;28;20024;-86
2023/04/25 09:51:10;;;;;;;7.07;2.08;;;14.40;76.70;;;;;;5061794;28;20040;-87
2023/04/25 09:53:37;;;;;;;8.48;2.10;;;14.30;76.70;;;;;;5043844;28;20036;-86
2023/04/25 09:56:06;;;;;;;7.57;1.77;;;14.30;76.80;;;;;;5043017;28;20028;-87
2023/04/25 09:58:32;;;;;;;7.15;1.90;;;14.30;76.80;;;;;;5040577;28;20047;-86
2023/04/25 10:01:06;;;;;;;7.55;2.00;;;14.30;76.60;;;;;;5035981;28;20029;-86
2023/04/25 10:03:33;;;;;;;7.10;1.77;;;14.30;76.60;;;;;;5041631;28;20021;-86
2023/04/25 10:06:04;;;;;;;8.32;1.75;;;14.30;76.70;;;;;;5037187;28;20090;-85
2023/04/25 10:08:35;;;;;;;7.22;2.00;;;14.30;76.80;;;;;;5054210;28;20028;-85
2023/04/25 10:11:02;;;;;;;;;;;14.30;76.80;;;;;;5035561;28;20029;-85
2023/04/25 10:13:29;;;;;;;5.45;1.70;;;14.30;76.80;;;;;;5045549;28;19909;-87
2023/04/25 10:15:57;;;;;;;6.90;2.15;;;14.30;76.70;;;;;;5050415;28;20112;-86
2023/04/25 10:18:24;;;;;;;6.03;1.83;;;14.30;76.70;;;;;;5044641;28;20025;-87
2023/04/25 10:20:50;;;;;;;8.63;2.00;;;14.30;76.70;;;;;;5044471;28;20410;-86
2023/04/25 10:23:16;;;;;;;7.57;1.73;;;14.30;76.40;;;;;;5061623;28;20087;-86
2023/04/25 10:25:43;;;;;;;8.20;1.77;;;14.40;76.50;;;;;;5043522;28;20090;-87
2023/04/25 10:28:08;;;;;;;6.13;1.83;;;14.40;76.50;;;;;;5042841;28;20021;-86
2023/04/25 10:30:34;;;;;;;6.70;1.80;;;14.50;76.40;;;;;;5036612;28;20036;-86
2023/04/25 10:32:59;;;;;;;5.18;1.60;;;14.50;76.30;;;;;;5038603;28;20028;-86
2023/04/25 10:35:28;;;;;;;4.18;1.40;;;14.60;76.50;;;;;;5043925;28;20105;-86
2023/04/25 10:38:00;;;;;;;4.60;1.60;;;14.50;76.40;;;;;;5062360;28;20486;-86
2023/04/25 10:40:26;;;;;;;5.60;1.88;;;14.60;76.10;;;;;;5044112;28;20082;-86
2023/04/25 10:42:54;;;;;;;6.72;1.95;;;14.50;76.10;;;;;;5043429;28;20025;-85
2023/04/25 10:45:20;;;;;;;5.30;1.90;;;14.50;76.10;;;;;;5043136;28;20025;-86
2023/04/25 10:47:45;;;;;;;5.63;1.45;;;14.50;76.00;;;;;;5043523;28;20421;-86
2023/04/25 10:50:11;;;;;;;5.22;1.60;;;14.50;76.10;;;;;;5042314;28;20025;-86
2023/04/25 10:52:40;;;;;;;4.90;1.75;;;14.40;76.20;;;;;;5042219;28;20029;-86
2023/04/25 10:55:06;;;;;;;6.18;1.80;;;14.40;76.20;;;;;;5041654;28;20017;-86
2023/04/25 10:57:39;;;;;;;5.93;2.00;;;14.40;76.30;;;;;;5041380;28;20021;-87
2023/04/25 11:00:19;;;;;;;4.07;1.38;;;14.40;76.40;;;;;;5040682;28;20035;-86
2023/04/25 11:02:45;;;;;;;5.85;1.60;;;14.40;76.40;;;;;;5040256;28;20111;-86
2023/04/25 11:05:21;;;;;;;6.85;1.80;;;14.40;76.40;;;;;;5040000;28;20437;-86
2023/04/25 11:07:56;;;;;;;5.40;1.60;;;14.40;76.40;;;;;;5037636;28;20029;-88
2023/04/25 11:10:29;;;;;;;5.68;1.60;;;14.30;76.40;;;;;;5052632;28;20450;-86
2023/04/25 11:12:54;;;;;;;4.65;1.65;;;14.40;76.40;;;;;;5034705;28;20036;-86
2023/04/25 11:15:20;;;;;;;6.47;1.80;;;14.40;76.20;;;;;;5035283;28;20025;-86
2023/04/25 11:17:46;;;;;;;4.18;1.60;;;14.40;76.00;;;;;;5035064;28;20035;-86
2023/04/25 11:20:15;;;;;;;6.05;1.60;;;14.40;76.30;;;;;;5034044;28;20028;-86
2023/04/25 11:22:43;;;;;;;3.65;1.50;;;14.40;75.80;;;;;;5057617;28;20059;-86
2023/04/25 11:25:11;;;;;;;5.38;1.58;;;14.40;75.90;;;;;;5037651;28;20466;-86
2023/04/25 11:27:53;;;;;;;5.18;1.42;;;14.40;75.80;;;;;;5037217;28;20032;-85
2023/04/25 11:30:20;;;;;;;5.25;1.52;;;14.40;76.00;;;;;;5037065;28;20032;-85
2023/04/25 11:32:45;;;;;;;6.18;1.50;;;14.40;76.10;;;;;;5037667;28;20393;-85
2023/04/25 11:35:11;;;;;;;4.18;1.55;;;14.40;75.90;;;;;;5036685;28;20025;-85
2023/04/25 11:37:40;;;;;;;6.22;1.50;;;14.30;76.20;;;;;;5037026;28;20021;-85
2023/04/25 11:40:06;;;;;;;4.53;1.40;;;14.30;76.20;;;;;;5037268;28;20025;-85
2023/04/25 11:42:33;;;;;;;5.53;1.65;;;14.30;76.30;;;;;;5036921;28;20021;-86
2023/04/25 11:44:59;;;;;;;5.13;1.70;;;14.30;76.20;;;;;;5036795;28;20029;-86
2023/04/25 11:47:32;;;;;;;4.07;1.45;;;14.30;76.10;;;;;;5034019;28;20060;-86
2023/04/25 11:49:59;;;;;;;4.45;1.50;;;14.30;76.20;;;;;;5034474;28;20500;-85
2023/04/25 11:52:35;;;;;;;4.63;1.50;;;14.30;76.20;;;;;;5034034;28;20068;-85
2023/04/25 11:55:00;;;;;;;5.90;1.20;;;14.40;76.30;;;;;;5051891;28;20029;-85
2023/04/25 11:57:26;;;;;;;4.38;1.50;;;14.30;75.80;;;;;;5053797;28;20420;-85
2023/04/25 11:59:51;;;;;;;4.72;1.50;;;14.40;75.70;;;;;;5034777;28;20032;-85
2023/04/25 12:02:26;;;;;;;4.30;1.42;;;14.40;75.60;;;;;;5034223;28;20431;-86
2023/04/25 12:04:52;;;;;;;4.32;1.20;;;14.50;75.70;;;;;;5035787;28;20021;-85
2023/04/25 12:07:21;;;;;;;5.45;1.50;;;14.50;75.40;;;;;;5033817;28;20044;-86
2023/04/25 12:09:52;;;;;;;3.97;1.33;;;14.60;75.40;;;;;;5034046;28;20116;-86
2023/04/25 12:12:18;;;;;;;4.20;1.50;;;14.60;75.20;;;;;;5033779;28;20464;-85
2023/04/25 12:14:48;;;;;;;4.57;1.35;;;14.60;75.20;;;;;;5033683;28;20037;-85
2023/04/25 12:17:13;;;;;;;4.35;1.55;;;14.50;75.10;;;;;;5033626;28;20032;-85
2023/04/25 12:19:44;;;;;;;3.90;1.52;;;14.60;75.10;;;;;;5034964;28;20021;-86
2023/04/25 12:22:24;;;;;;;5.85;1.40;;;14.60;75.50;;;;;;5034093;28;20033;-86
2023/04/25 12:24:49;;;;;;;5.43;1.23;;;14.60;75.50;;;;;;5034558;28;20021;-85
2023/04/25 12:27:16;;;;;;;3.97;1.20;;;14.60;75.20;;;;;;5034041;28;20097;-85
2023/04/25 12:29:54;;;;;;;4.70;1.23;;;14.60;75.20;;;;;;5033799;28;20029;-85
2023/04/25 12:32:20;;;;;;;4.57;1.25;;;14.60;75.20;;;;;;5033172;28;20052;-85
2023/04/25 12:34:45;;;;;;;3.42;1.10;;;14.60;75.20;;;;;;5033922;28;20491;-86
2023/04/25 12:37:11;;;;;;;2.90;1.20;;;14.60;75.30;;;;;;5037112;28;20029;-85
2023/04/25 12:39:37;;;;;;;4.38;1.38;;;14.70;75.20;;;;;;5037199;28;20018;-85
2023/04/25 12:42:03;;;;;;;3.05;1.00;;;14.70;75.10;;;;;;5037035;28;20382;-88
2023/04/25 12:44:28;;;;;;;3.47;1.10;;;14.70;75.20;;;;;;5037207;28;20041;-85
2023/04/25 12:46:54;;;;;;;3.20;1.23;;;14.60;75.20;;;;;;5054905;28;20029;-86
2023/04/25 12:49:20;;;;;;;3.65;1.20;;;14.60;75.10;;;;;;5036986;28;20111;-85
2023/04/25 12:51:46;;;;;;;3.85;1.45;;;14.60;75.20;;;;;;5037197;28;20116;-85
2023/04/25 12:54:12;;;;;;;3.65;1.20;;;14.60;75.40;;;;;;5036882;28;20032;-85
2023/04/25 12:56:38;;;;;;;4.18;1.27;;;14.60;75.50;;;;;;5043783;28;20029;-87
2023/04/25 12:59:03;;;;;;;4.15;1.08;;;14.60;75.60;;;;;;5058008;28;20058;-85
2023/04/25 13:01:29;;;;;;;4.15;1.17;;;14.50;75.60;;;;;;5041609;28;20053;-87
2023/04/25 13:03:55;;;;;;;3.72;1.70;;;14.50;75.70;;;;;;5066272;28;20063;-87
2023/04/25 13:06:22;;;;;;;4.10;1.30;;;14.50;75.70;;;;;;5047474;28;20025;-86
2023/04/25 13:08:48;;;;;;;6.38;1.58;;;14.50;75.90;;;;;;5047302;28;20017;-87
2023/04/25 13:11:17;;;;;;;4.50;1.38;;;14.40;75.70;;;;;;5046350;28;20032;-85
2023/04/25 13:13:44;;;;;;;3.75;1.40;;;14.40;75.80;;;;;;5047335;28;20055;-86
2023/04/25 13:16:10;;;;;;;4.60;1.60;;;14.40;75.90;;;;;;5046533;28;20040;-86
2023/04/25 13:18:35;;;;;;;4.97;1.40;;;14.40;75.90;;;;;;5046233;28;20021;-85
2023/04/25 13:21:01;;;;;;;4.63;1.30;;;14.40;76.00;;;;;;5045060;28;20390;-86
2023/04/25 13:23:28;;;;;;;4.43;1.60;;;14.40;76.10;;;;;;5063252;28;20504;-86
2023/04/25 13:25:55;;;;;;;3.28;1.17;;;14.40;75.90;;;;;;5044676;28;20039;-86
2023/04/25 13:28:20;;;;;;;3.97;1.40;;;14.40;76.00;;;;;;5062734;28;20032;-86
2023/04/25 13:30:47;;;;;;;2.67;1.17;;;14.40;75.90;;;;;;5043201;28;20021;-86
2023/04/25 13:33:13;;;;;;;4.63;1.60;;;14.50;75.70;;;;;;5043647;28;20120;-85
2023/04/25 13:35:39;;;;;;;3.70;1.30;;;14.40;75.60;;;;;;5043355;28;20032;-87
2023/04/25 13:38:05;;;;;;;3.28;1.20;;;14.50;75.70;;;;;;5042829;28;20021;-86
2023/04/25 13:40:31;;;;;;;3.10;1.10;;;14.50;75.70;;;;;;5043198;28;20028;-86
2023/04/25 13:42:57;;;;;;;2.80;1.20;;;14.50;75.80;;;;;;5041198;28;20127;-86
2023/04/25 13:45:23;;;;;;;3.13;1.08;;;14.50;75.80;;;;;;5036146;28;20485;-86
2023/04/25 13:47:48;;;;;;;3.33;1.20;;;14.50;75.70;;;;;;5054607;28;20033;-86
2023/04/25 13:50:15;;;;;;;1.80;0.95;;;14.50;75.70;;;;;;5047588;28;20438;-87
2023/04/25 13:52:41;;;;;;;3.83;1.20;;;14.40;75.70;;;;;;5047023;28;20032;-85
2023/04/25 13:55:08;;;;;;;3.00;1.08;;;14.50;75.70;;;;;;5064856;28;20025;-88
2023/04/25 13:57:34;;;;;;;3.20;1.00;;;14.50;75.70;;;;;;5065262;28;20103;-87
2023/04/25 14:00:04;;;;;;;3.22;1.10;;;14.40;75.80;;;;;;5048809;28;20021;-87
2023/04/25 14:02:30;;;;;;;3.80;1.20;;;14.40;75.80;;;;;;5062106;28;20041;-83
2023/04/25 14:04:55;;;;;;;3.42;1.10;;;14.40;75.80;;;;;;5043284;28;20025;-84